createdAt,value
2018-04-08T09:17:45.979Z,39.90
2018-04-08T09:22:42.433Z,22.83
2018-04-08T09:25:15.032Z,17.10
2018-04-08T09:27:43.661Z,13.98
2018-04-08T09:30:12.528Z,11.77
2018-04-08T09:32:41.739Z,11.43
2018-04-08T09:35:11.681Z,9.30
2018-04-08T09:37:40.356Z,9.15
2018-04-08T09:40:09.018Z,8.90
2018-04-08T09:42:37.784Z,9.60
2018-04-08T09:45:06.492Z,8.95
2018-04-08T09:47:35.572Z,9.30
2018-04-08T09:50:04.392Z,12.93
2018-04-08T09:52:33.044Z,12.98
2018-04-08T09:55:04.246Z,12.57
2018-04-08T09:57:44.684Z,12.30
2018-04-08T10:03:29.317Z,12.73
2018-04-08T10:05:58.001Z,12.95
2018-04-08T10:08:26.592Z,13.57
2018-04-08T10:10:55.446Z,20.05
2018-04-08T18:06:33.960Z,244.48
2018-04-08T18:09:03.876Z,250.48
2018-04-08T19:02:48.648Z,132.07
2018-04-08T19:05:17.271Z,130.80
2018-04-08T19:07:45.915Z,132.12
2018-04-08T19:12:07.985Z,134.10
2018-04-08T19:14:55.345Z,121.43
2018-04-08T19:17:42.096Z,120.10
2018-04-08T19:20:10.883Z,127.43
2018-04-08T19:22:39.943Z,122.93
2018-04-08T19:25:09.273Z,128.60
2018-04-08T19:27:38.113Z,118.62
2018-04-08T19:30:21.962Z,114.47
2018-04-08T19:32:51.784Z,113.88
2018-04-08T19:35:20.406Z,119.20
2018-04-08T19:37:49.082Z,111.43
2018-04-08T19:40:17.655Z,109.70
2018-04-08T19:42:46.299Z,104.90
2018-04-08T19:45:14.912Z,121.28
2018-04-08T19:47:43.551Z,124.40
2018-04-08T19:50:12.318Z,127.57
2018-04-08T19:52:40.997Z,140.43
2018-04-08T19:55:09.574Z,144.27
